sensor_id;sensor_type;location;lat;lon;timestamp;P1;durP1;ratioP1;P2;durP2;ratioP2
79284;SDS011;68734;50.452;11.636;2024-02-26T00:00:24;10.52;;;4.25;;
79284;SDS011;68734;50.452;11.636;2024-02-26T00:02:50;7.82;;;4.00;;
79284;SDS011;68734;50.452;11.636;2024-02-26T00:05:15;7.43;;;3.80;;
79284;SDS011;68734;50.452;11.636;2024-02-26T00:07:41;5.97;;;4.00;;
79284;SDS011;68734;50.452;11.636;2024-02-26T00:10:06;6.40;;;3.88;;
79284;SDS011;68734;50.452;11.636;2024-02-26T00:12:32;6.65;;;3.58;;
79284;SDS011;68734;50.452;11.636;2024-02-26T00:14:57;5.88;;;3.83;;
79284;SDS011;68734;50.452;11.636;2024-02-26T00:17:23;6.68;;;4.00;;
79284;SDS011;68734;50.452;11.636;2024-02-26T00:19:49;6.68;;;4.07;;
79284;SDS011;68734;50.452;11.636;2024-02-26T00:22:15;8.27;;;4.22;;
79284;SDS011;68734;50.452;11.636;2024-02-26T00:24:40;7.55;;;4.22;;
79284;SDS011;68734;50.452;11.636;2024-02-26T00:27:09;10.27;;;5.05;;
79284;SDS011;68734;50.452;11.636;2024-02-26T00:29:34;12.80;;;3.83;;
79284;SDS011;68734;50.452;11.636;2024-02-26T00:32:00;7.40;;;5.00;;
79284;SDS011;68734;50.452;11.636;2024-02-26T00:34:25;7.07;;;4.70;;
79284;SDS011;68734;50.452;11.636;2024-02-26T00:36:50;10.30;;;4.78;;
79284;SDS011;68734;50.452;11.636;2024-02-26T00:39:16;7.60;;;4.75;;
79284;SDS011;68734;50.452;11.636;2024-02-26T00:41:41;8.18;;;4.28;;
79284;SDS011;68734;50.452;11.636;2024-02-26T00:44:07;9.48;;;5.75;;
79284;SDS011;68734;50.452;11.636;2024-02-26T00:46:32;12.82;;;5.65;;
79284;SDS011;68734;50.452;11.636;2024-02-26T00:48:58;10.02;;;5.10;;
79284;SDS011;68734;50.452;11.636;2024-02-26T00:51:26;10.48;;;5.43;;
79284;SDS011;68734;50.452;11.636;2024-02-26T00:53:52;14.00;;;5.65;;
79284;SDS011;68734;50.452;11.636;2024-02-26T00:56:19;13.38;;;6.32;;
79284;SDS011;68734;50.452;11.636;2024-02-26T00:58:44;9.38;;;5.57;;
79284;SDS011;68734;50.452;11.636;2024-02-26T01:01:12;12.07;;;5.60;;
79284;SDS011;68734;50.452;11.636;2024-02-26T01:03:37;16.23;;;5.53;;
79284;SDS011;68734;50.452;11.636;2024-02-26T01:06:03;12.88;;;6.07;;
79284;SDS011;68734;50.452;11.636;2024-02-26T01:08:28;16.73;;;6.65;;
79284;SDS011;68734;50.452;11.636;2024-02-26T01:10:54;15.80;;;9.65;;
79284;SDS011;68734;50.452;11.636;2024-02-26T01:13:19;12.55;;;8.23;;
79284;SDS011;68734;50.452;11.636;2024-02-26T01:15:47;18.80;;;6.75;;
79284;SDS011;68734;50.452;11.636;2024-02-26T01:18:12;9.85;;;6.35;;
79284;SDS011;68734;50.452;11.636;2024-02-26T01:20:38;15.02;;;6.60;;
79284;SDS011;68734;50.452;11.636;2024-02-26T01:23:06;14.48;;;6.65;;
79284;SDS011;68734;50.452;11.636;2024-02-26T01:25:31;11.70;;;5.78;;
79284;SDS011;68734;50.452;11.636;2024-02-26T01:27:57;8.27;;;5.40;;
79284;SDS011;68734;50.452;11.636;2024-02-26T01:30:22;15.30;;;6.30;;
79284;SDS011;68734;50.452;11.636;2024-02-26T01:32:48;14.02;;;6.43;;
79284;SDS011;68734;50.452;11.636;2024-02-26T01:35:13;18.27;;;6.97;;
79284;SDS011;68734;50.452;11.636;2024-02-26T01:37:38;11.30;;;5.82;;
79284;SDS011;68734;50.452;11.636;2024-02-26T01:40:05;12.75;;;6.30;;
79284;SDS011;68734;50.452;11.636;2024-02-26T01:42:31;13.48;;;6.90;;
79284;SDS011;68734;50.452;11.636;2024-02-26T01:45:00;14.23;;;6.75;;
79284;SDS011;68734;50.452;11.636;2024-02-26T01:47:25;14.52;;;5.57;;
79284;SDS011;68734;50.452;11.636;2024-02-26T01:49:52;13.23;;;6.47;;
79284;SDS011;68734;50.452;11.636;2024-02-26T01:52:18;13.75;;;7.35;;
79284;SDS011;68734;50.452;11.636;2024-02-26T01:54:44;12.68;;;5.80;;
79284;SDS011;68734;50.452;11.636;2024-02-26T01:57:10;16.45;;;7.25;;
79284;SDS011;68734;50.452;11.636;2024-02-26T01:59:37;16.58;;;7.47;;
79284;SDS011;68734;50.452;11.636;2024-02-26T02:02:05;12.95;;;6.25;;
79284;SDS011;68734;50.452;11.636;2024-02-26T02:04:34;12.40;;;6.57;;
79284;SDS011;68734;50.452;11.636;2024-02-26T02:07:03;15.48;;;6.22;;
79284;SDS011;68734;50.452;11.636;2024-02-26T02:09:29;11.10;;;6.40;;
79284;SDS011;68734;50.452;11.636;2024-02-26T02:11:55;15.52;;;6.85;;
79284;SDS011;68734;50.452;11.636;2024-02-26T02:14:21;12.35;;;6.38;;
79284;SDS011;68734;50.452;11.636;2024-02-26T02:16:47;18.20;;;7.72;;
79284;SDS011;68734;50.452;11.636;2024-02-26T02:19:15;13.73;;;7.32;;
79284;SDS011;68734;50.452;11.636;2024-02-26T02:21:43;14.23;;;7.10;;
79284;SDS011;68734;50.452;11.636;2024-02-26T02:24:08;10.73;;;6.78;;
79284;SDS011;68734;50.452;11.636;2024-02-26T02:26:34;12.20;;;6.47;;
79284;SDS011;68734;50.452;11.636;2024-02-26T02:28:59;17.38;;;7.97;;
79284;SDS011;68734;50.452;11.636;2024-02-26T02:31:25;12.07;;;7.03;;
79284;SDS011;68734;50.452;11.636;2024-02-26T02:33:51;20.35;;;8.30;;
79284;SDS011;68734;50.452;11.636;2024-02-26T02:36:19;15.65;;;6.72;;
79284;SDS011;68734;50.452;11.636;2024-02-26T02:38:49;12.85;;;6.82;;
79284;SDS011;68734;50.452;11.636;2024-02-26T02:41:16;14.98;;;7.05;;
79284;SDS011;68734;50.452;11.636;2024-02-26T02:43:42;11.82;;;6.43;;
79284;SDS011;68734;50.452;11.636;2024-02-26T02:46:10;12.07;;;6.25;;
79284;SDS011;68734;50.452;11.636;2024-02-26T02:48:36;12.80;;;6.82;;
79284;SDS011;68734;50.452;11.636;2024-02-26T02:51:06;16.92;;;7.03;;
79284;SDS011;68734;50.452;11.636;2024-02-26T02:53:34;12.95;;;6.82;;
79284;SDS011;68734;50.452;11.636;2024-02-26T02:55:59;14.40;;;7.50;;
79284;SDS011;68734;50.452;11.636;2024-02-26T02:58:27;13.75;;;6.45;;
79284;SDS011;68734;50.452;11.636;2024-02-26T03:00:52;15.23;;;6.07;;
79284;SDS011;68734;50.452;11.636;2024-02-26T03:03:20;16.02;;;7.25;;
79284;SDS011;68734;50.452;11.636;2024-02-26T03:05:46;14.88;;;6.72;;
79284;SDS011;68734;50.452;11.636;2024-02-26T03:08:11;16.45;;;7.45;;
79284;SDS011;68734;50.452;11.636;2024-02-26T03:10:36;17.17;;;6.80;;
79284;SDS011;68734;50.452;11.636;2024-02-26T03:13:02;13.95;;;6.35;;
79284;SDS011;68734;50.452;11.636;2024-02-26T03:15:27;13.27;;;7.10;;
79284;SDS011;68734;50.452;11.636;2024-02-26T03:17:53;11.80;;;6.13;;
79284;SDS011;68734;50.452;11.636;2024-02-26T03:20:18;11.38;;;5.85;;
79284;SDS011;68734;50.452;11.636;2024-02-26T03:22:44;14.50;;;6.53;;
79284;SDS011;68734;50.452;11.636;2024-02-26T03:25:10;12.00;;;6.57;;
79284;SDS011;68734;50.452;11.636;2024-02-26T03:27:35;13.55;;;5.55;;
79284;SDS011;68734;50.452;11.636;2024-02-26T03:30:03;12.80;;;6.57;;
79284;SDS011;68734;50.452;11.636;2024-02-26T03:32:29;14.75;;;6.80;;
79284;SDS011;68734;50.452;11.636;2024-02-26T03:34:57;12.57;;;5.93;;
79284;SDS011;68734;50.452;11.636;2024-02-26T03:37:23;14.82;;;6.85;;
79284;SDS011;68734;50.452;11.636;2024-02-26T03:39:48;9.57;;;5.95;;
79284;SDS011;68734;50.452;11.636;2024-02-26T03:42:13;10.82;;;6.25;;
79284;SDS011;68734;50.452;11.636;2024-02-26T03:44:39;10.75;;;6.18;;
79284;SDS011;68734;50.452;11.636;2024-02-26T03:47:04;20.85;;;8.57;;
79284;SDS011;68734;50.452;11.636;2024-02-26T03:49:30;16.02;;;7.53;;
79284;SDS011;68734;50.452;11.636;2024-02-26T03:51:55;13.20;;;6.50;;
79284;SDS011;68734;50.452;11.636;2024-02-26T03:54:21;15.20;;;6.80;;
79284;SDS011;68734;50.452;11.636;2024-02-26T03:56:47;14.80;;;6.88;;
79284;SDS011;68734;50.452;11.636;2024-02-26T03:59:12;11.60;;;6.53;;
79284;SDS011;68734;50.452;11.636;2024-02-26T04:01:37;14.48;;;5.55;;
79284;SDS011;68734;50.452;11.636;2024-02-26T04:04:03;13.90;;;5.88;;
79284;SDS011;68734;50.452;11.636;2024-02-26T04:06:29;14.20;;;6.57;;
79284;SDS011;68734;50.452;11.636;2024-02-26T04:08:54;18.05;;;7.38;;
79284;SDS011;68734;50.452;11.636;2024-02-26T04:11:19;16.35;;;6.32;;
79284;SDS011;68734;50.452;11.636;2024-02-26T04:13:47;17.75;;;7.32;;
79284;SDS011;68734;50.452;11.636;2024-02-26T04:16:16;13.73;;;6.80;;
79284;SDS011;68734;50.452;11.636;2024-02-26T04:18:41;14.13;;;6.82;;
79284;SDS011;68734;50.452;11.636;2024-02-26T04:21:10;14.32;;;6.20;;
79284;SDS011;68734;50.452;11.636;2024-02-26T04:23:35;12.32;;;6.90;;
79284;SDS011;68734;50.452;11.636;2024-02-26T04:26:01;14.00;;;7.32;;
79284;SDS011;68734;50.452;11.636;2024-02-26T04:28:26;14.55;;;6.75;;
79284;SDS011;68734;50.452;11.636;2024-02-26T04:30:54;14.90;;;6.78;;
79284;SDS011;68734;50.452;11.636;2024-02-26T04:33:19;19.27;;;6.60;;
79284;SDS011;68734;50.452;11.636;2024-02-26T04:35:45;15.15;;;8.13;;
79284;SDS011;68734;50.452;11.636;2024-02-26T04:38:10;34.63;;;16.58;;
79284;SDS011;68734;50.452;11.636;2024-02-26T04:40:36;15.38;;;7.45;;
79284;SDS011;68734;50.452;11.636;2024-02-26T04:43:01;12.93;;;7.13;;
79284;SDS011;68734;50.452;11.636;2024-02-26T04:45:29;13.45;;;7.18;;
79284;SDS011;68734;50.452;11.636;2024-02-26T04:47:55;13.30;;;6.80;;
79284;SDS011;68734;50.452;11.636;2024-02-26T04:50:20;16.98;;;6.32;;
79284;SDS011;68734;50.452;11.636;2024-02-26T04:52:45;13.73;;;6.82;;
79284;SDS011;68734;50.452;11.636;2024-02-26T04:55:11;11.90;;;6.72;;
79284;SDS011;68734;50.452;11.636;2024-02-26T04:57:36;11.43;;;6.32;;
79284;SDS011;68734;50.452;11.636;2024-02-26T05:00:02;15.02;;;6.28;;
79284;SDS011;68734;50.452;11.636;2024-02-26T05:02:30;18.08;;;7.55;;
79284;SDS011;68734;50.452;11.636;2024-02-26T05:04:57;8.95;;;5.57;;
79284;SDS011;68734;50.452;11.636;2024-02-26T05:07:25;11.90;;;5.57;;
79284;SDS011;68734;50.452;11.636;2024-02-26T05:09:53;15.95;;;7.38;;
79284;SDS011;68734;50.452;11.636;2024-02-26T05:12:18;14.85;;;8.63;;
79284;SDS011;68734;50.452;11.636;2024-02-26T05:14:44;15.23;;;7.57;;
79284;SDS011;68734;50.452;11.636;2024-02-26T05:17:09;16.02;;;8.38;;
79284;SDS011;68734;50.452;11.636;2024-02-26T05:19:35;19.65;;;9.95;;
79284;SDS011;68734;50.452;11.636;2024-02-26T05:22:00;15.95;;;8.48;;
79284;SDS011;68734;50.452;11.636;2024-02-26T05:24:25;14.80;;;7.47;;
79284;SDS011;68734;50.452;11.636;2024-02-26T05:26:51;19.45;;;8.65;;
79284;SDS011;68734;50.452;11.636;2024-02-26T05:29:16;12.73;;;7.25;;
79284;SDS011;68734;50.452;11.636;2024-02-26T05:31:42;13.60;;;6.90;;
79284;SDS011;68734;50.452;11.636;2024-02-26T05:34:08;15.80;;;7.38;;
79284;SDS011;68734;50.452;11.636;2024-02-26T05:36:34;16.73;;;8.13;;
79284;SDS011;68734;50.452;11.636;2024-02-26T05:39:00;15.35;;;7.97;;
79284;SDS011;68734;50.452;11.636;2024-02-26T05:41:29;20.88;;;8.68;;
79284;SDS011;68734;50.452;11.636;2024-02-26T05:43:55;17.90;;;10.23;;
79284;SDS011;68734;50.452;11.636;2024-02-26T05:46:20;25.25;;;11.00;;
79284;SDS011;68734;50.452;11.636;2024-02-26T05:48:47;25.15;;;9.60;;
79284;SDS011;68734;50.452;11.636;2024-02-26T05:51:14;26.05;;;11.15;;
79284;SDS011;68734;50.452;11.636;2024-02-26T05:53:40;23.55;;;10.25;;
79284;SDS011;68734;50.452;11.636;2024-02-26T05:56:06;23.38;;;10.02;;
79284;SDS011;68734;50.452;11.636;2024-02-26T05:58:31;18.63;;;8.85;;
79284;SDS011;68734;50.452;11.636;2024-02-26T06:00:57;20.73;;;9.05;;
79284;SDS011;68734;50.452;11.636;2024-02-26T06:03:30;19.55;;;9.13;;
79284;SDS011;68734;50.452;11.636;2024-02-26T06:05:55;18.23;;;8.75;;
79284;SDS011;68734;50.452;11.636;2024-02-26T06:08:21;18.92;;;9.35;;
79284;SDS011;68734;50.452;11.636;2024-02-26T06:10:47;20.38;;;9.55;;
79284;SDS011;68734;50.452;11.636;2024-02-26T06:13:12;18.67;;;8.45;;
79284;SDS011;68734;50.452;11.636;2024-02-26T06:15:38;20.20;;;9.25;;
79284;SDS011;68734;50.452;11.636;2024-02-26T06:18:03;22.52;;;10.48;;
79284;SDS011;68734;50.452;11.636;2024-02-26T06:20:29;22.70;;;10.95;;
79284;SDS011;68734;50.452;11.636;2024-02-26T06:22:54;24.50;;;10.98;;
79284;SDS011;68734;50.452;11.636;2024-02-26T06:25:20;23.02;;;8.90;;
79284;SDS011;68734;50.452;11.636;2024-02-26T06:27:45;24.88;;;10.48;;
79284;SDS011;68734;50.452;11.636;2024-02-26T06:30:10;23.00;;;10.13;;
79284;SDS011;68734;50.452;11.636;2024-02-26T06:32:37;23.95;;;10.65;;
79284;SDS011;68734;50.452;11.636;2024-02-26T06:35:05;20.95;;;9.57;;
79284;SDS011;68734;50.452;11.636;2024-02-26T06:37:35;20.05;;;11.90;;
79284;SDS011;68734;50.452;11.636;2024-02-26T06:40:01;28.38;;;11.23;;
79284;SDS011;68734;50.452;11.636;2024-02-26T06:42:31;26.75;;;11.68;;
79284;SDS011;68734;50.452;11.636;2024-02-26T06:44:57;23.83;;;10.82;;
79284;SDS011;68734;50.452;11.636;2024-02-26T06:47:23;22.23;;;9.77;;
79284;SDS011;68734;50.452;11.636;2024-02-26T06:49:51;20.98;;;10.68;;
79284;SDS011;68734;50.452;11.636;2024-02-26T06:52:16;22.85;;;10.52;;
79284;SDS011;68734;50.452;11.636;2024-02-26T06:54:44;27.20;;;10.70;;
79284;SDS011;68734;50.452;11.636;2024-02-26T06:57:10;36.13;;;13.57;;
79284;SDS011;68734;50.452;11.636;2024-02-26T06:59:36;30.25;;;13.35;;
79284;SDS011;68734;50.452;11.636;2024-02-26T07:02:01;31.88;;;11.48;;
79284;SDS011;68734;50.452;11.636;2024-02-26T07:04:29;31.50;;;12.00;;
79284;SDS011;68734;50.452;11.636;2024-02-26T07:06:57;31.60;;;12.95;;
79284;SDS011;68734;50.452;11.636;2024-02-26T07:09:22;34.22;;;13.88;;
79284;SDS011;68734;50.452;11.636;2024-02-26T07:11:47;27.45;;;11.70;;
79284;SDS011;68734;50.452;11.636;2024-02-26T07:14:13;31.10;;;11.10;;
79284;SDS011;68734;50.452;11.636;2024-02-26T07:16:41;25.67;;;11.10;;
79284;SDS011;68734;50.452;11.636;2024-02-26T07:19:06;23.52;;;9.38;;
79284;SDS011;68734;50.452;11.636;2024-02-26T07:21:32;18.45;;;9.98;;
79284;SDS011;68734;50.452;11.636;2024-02-26T07:23:57;23.00;;;10.45;;
79284;SDS011;68734;50.452;11.636;2024-02-26T07:26:23;19.88;;;10.02;;
79284;SDS011;68734;50.452;11.636;2024-02-26T07:28:51;28.42;;;11.43;;
79284;SDS011;68734;50.452;11.636;2024-02-26T07:31:17;25.73;;;10.52;;
79284;SDS011;68734;50.452;11.636;2024-02-26T07:33:45;21.35;;;10.50;;
79284;SDS011;68734;50.452;11.636;2024-02-26T07:36:11;25.27;;;11.80;;
79284;SDS011;68734;50.452;11.636;2024-02-26T07:38:36;27.23;;;13.82;;
79284;SDS011;68734;50.452;11.636;2024-02-26T07:41:02;30.33;;;15.05;;
79284;SDS011;68734;50.452;11.636;2024-02-26T07:43:28;30.40;;;12.82;;
79284;SDS011;68734;50.452;11.636;2024-02-26T07:45:54;25.40;;;12.73;;
79284;SDS011;68734;50.452;11.636;2024-02-26T07:48:22;18.88;;;9.90;;
79284;SDS011;68734;50.452;11.636;2024-02-26T07:50:47;19.00;;;10.00;;
79284;SDS011;68734;50.452;11.636;2024-02-26T07:53:15;20.63;;;10.63;;
79284;SDS011;68734;50.452;11.636;2024-02-26T07:55:43;26.35;;;11.07;;
79284;SDS011;68734;50.452;11.636;2024-02-26T07:58:08;22.63;;;10.65;;
79284;SDS011;68734;50.452;11.636;2024-02-26T08:00:34;25.08;;;11.50;;
79284;SDS011;68734;50.452;11.636;2024-02-26T08:02:59;21.17;;;11.32;;
79284;SDS011;68734;50.452;11.636;2024-02-26T08:05:28;19.58;;;10.30;;
79284;SDS011;68734;50.452;11.636;2024-02-26T08:07:53;23.75;;;10.63;;
79284;SDS011;68734;50.452;11.636;2024-02-26T08:10:19;21.00;;;10.20;;
79284;SDS011;68734;50.452;11.636;2024-02-26T08:12:45;20.30;;;10.20;;
79284;SDS011;68734;50.452;11.636;2024-02-26T08:15:10;20.75;;;10.82;;
79284;SDS011;68734;50.452;11.636;2024-02-26T08:17:36;23.13;;;10.90;;
79284;SDS011;68734;50.452;11.636;2024-02-26T08:20:04;25.83;;;13.13;;
79284;SDS011;68734;50.452;11.636;2024-02-26T08:22:30;22.40;;;11.15;;
79284;SDS011;68734;50.452;11.636;2024-02-26T08:24:56;22.17;;;12.02;;
79284;SDS011;68734;50.452;11.636;2024-02-26T08:27:24;22.23;;;11.57;;
79284;SDS011;68734;50.452;11.636;2024-02-26T08:29:50;20.00;;;10.35;;
79284;SDS011;68734;50.452;11.636;2024-02-26T08:32:15;20.63;;;10.75;;
79284;SDS011;68734;50.452;11.636;2024-02-26T08:34:41;20.13;;;10.40;;
79284;SDS011;68734;50.452;11.636;2024-02-26T08:37:07;22.08;;;9.25;;
79284;SDS011;68734;50.452;11.636;2024-02-26T08:39:32;20.98;;;10.77;;
79284;SDS011;68734;50.452;11.636;2024-02-26T08:42:00;21.35;;;10.25;;
79284;SDS011;68734;50.452;11.636;2024-02-26T08:44:26;21.77;;;9.85;;
79284;SDS011;68734;50.452;11.636;2024-02-26T08:46:53;18.05;;;9.60;;
79284;SDS011;68734;50.452;11.636;2024-02-26T08:49:19;22.17;;;10.13;;
79284;SDS011;68734;50.452;11.636;2024-02-26T08:51:44;18.58;;;9.52;;
79284;SDS011;68734;50.452;11.636;2024-02-26T08:54:10;20.42;;;10.23;;
79284;SDS011;68734;50.452;11.636;2024-02-26T08:56:36;24.25;;;11.57;;
79284;SDS011;68734;50.452;11.636;2024-02-26T08:59:01;29.90;;;12.95;;
79284;SDS011;68734;50.452;11.636;2024-02-26T09:01:31;24.95;;;12.18;;
79284;SDS011;68734;50.452;11.636;2024-02-26T09:03:57;20.67;;;10.75;;
79284;SDS011;68734;50.452;11.636;2024-02-26T09:06:23;21.98;;;9.68;;
79284;SDS011;68734;50.452;11.636;2024-02-26T09:08:48;15.25;;;9.30;;
79284;SDS011;68734;50.452;11.636;2024-02-26T09:11:14;20.60;;;10.73;;
79284;SDS011;68734;50.452;11.636;2024-02-26T09:13:39;21.38;;;9.93;;
79284;SDS011;68734;50.452;11.636;2024-02-26T09:16:05;19.00;;;10.00;;
79284;SDS011;68734;50.452;11.636;2024-02-26T09:18:31;18.20;;;9.80;;
79284;SDS011;68734;50.452;11.636;2024-02-26T09:20:56;19.52;;;10.35;;
79284;SDS011;68734;50.452;11.636;2024-02-26T09:23:22;17.13;;;8.65;;
79284;SDS011;68734;50.452;11.636;2024-02-26T09:25:47;17.10;;;9.75;;
79284;SDS011;68734;50.452;11.636;2024-02-26T09:28:12;18.63;;;10.43;;
79284;SDS011;68734;50.452;11.636;2024-02-26T09:30:38;17.65;;;9.68;;
79284;SDS011;68734;50.452;11.636;2024-02-26T09:33:03;18.67;;;9.75;;
79284;SDS011;68734;50.452;11.636;2024-02-26T09:35:29;20.08;;;10.52;;
79284;SDS011;68734;50.452;11.636;2024-02-26T09:37:55;17.95;;;10.23;;
79284;SDS011;68734;50.452;11.636;2024-02-26T09:40:21;19.58;;;10.13;;
79284;SDS011;68734;50.452;11.636;2024-02-26T09:42:47;18.88;;;10.10;;
79284;SDS011;68734;50.452;11.636;2024-02-26T09:45:23;17.48;;;9.13;;
79284;SDS011;68734;50.452;11.636;2024-02-26T09:47:52;16.88;;;10.13;;
79284;SDS011;68734;50.452;11.636;2024-02-26T09:50:23;19.13;;;8.55;;
79284;SDS011;68734;50.452;11.636;2024-02-26T09:52:51;17.85;;;9.75;;
79284;SDS011;68734;50.452;11.636;2024-02-26T09:55:18;16.35;;;8.73;;
79284;SDS011;68734;50.452;11.636;2024-02-26T09:57:44;17.92;;;9.63;;
79284;SDS011;68734;50.452;11.636;2024-02-26T10:00:20;19.23;;;9.02;;
79284;SDS011;68734;50.452;11.636;2024-02-26T10:02:47;18.70;;;9.27;;
79284;SDS011;68734;50.452;11.636;2024-02-26T10:05:17;18.23;;;10.32;;
79284;SDS011;68734;50.452;11.636;2024-02-26T10:07:45;21.38;;;9.82;;
79284;SDS011;68734;50.452;11.636;2024-02-26T10:10:12;16.98;;;9.95;;
79284;SDS011;68734;50.452;11.636;2024-02-26T10:12:39;17.92;;;9.63;;
79284;SDS011;68734;50.452;11.636;2024-02-26T10:15:06;16.67;;;9.18;;
79284;SDS011;68734;50.452;11.636;2024-02-26T10:17:32;19.45;;;9.40;;
79284;SDS011;68734;50.452;11.636;2024-02-26T10:20:11;15.82;;;8.77;;
79284;SDS011;68734;50.452;11.636;2024-02-26T10:22:39;14.32;;;8.52;;
79284;SDS011;68734;50.452;11.636;2024-02-26T10:25:05;16.67;;;8.35;;
79284;SDS011;68734;50.452;11.636;2024-02-26T10:27:33;15.88;;;8.18;;
79284;SDS011;68734;50.452;11.636;2024-02-26T10:30:12;14.90;;;8.38;;
79284;SDS011;68734;50.452;11.636;2024-02-26T10:32:45;15.45;;;8.88;;
79284;SDS011;68734;50.452;11.636;2024-02-26T10:35:12;15.30;;;8.55;;
79284;SDS011;68734;50.452;11.636;2024-02-26T10:37:39;17.58;;;9.43;;
79284;SDS011;68734;50.452;11.636;2024-02-26T10:40:05;14.00;;;7.65;;
79284;SDS011;68734;50.452;11.636;2024-02-26T10:42:34;17.95;;;8.82;;
79284;SDS011;68734;50.452;11.636;2024-02-26T10:45:00;18.73;;;8.40;;
79284;SDS011;68734;50.452;11.636;2024-02-26T10:47:27;14.85;;;8.02;;
79284;SDS011;68734;50.452;11.636;2024-02-26T10:49:54;17.70;;;8.57;;
79284;SDS011;68734;50.452;11.636;2024-02-26T10:52:21;12.65;;;7.43;;
79284;SDS011;68734;50.452;11.636;2024-02-26T10:54:50;12.60;;;7.05;;
79284;SDS011;68734;50.452;11.636;2024-02-26T10:57:22;14.95;;;8.20;;
79284;SDS011;68734;50.452;11.636;2024-02-26T10:59:49;17.00;;;8.63;;
79284;SDS011;68734;50.452;11.636;2024-02-26T11:02:18;13.27;;;8.23;;
79284;SDS011;68734;50.452;11.636;2024-02-26T11:04:45;18.58;;;8.40;;
79284;SDS011;68734;50.452;11.636;2024-02-26T11:07:11;14.63;;;8.18;;
79284;SDS011;68734;50.452;11.636;2024-02-26T11:09:38;14.60;;;8.40;;
79284;SDS011;68734;50.452;11.636;2024-02-26T11:12:10;14.10;;;6.38;;
79284;SDS011;68734;50.452;11.636;2024-02-26T11:14:38;15.73;;;7.95;;
79284;SDS011;68734;50.452;11.636;2024-02-26T11:17:05;14.77;;;7.45;;
79284;SDS011;68734;50.452;11.636;2024-02-26T11:19:33;12.98;;;6.90;;
79284;SDS011;68734;50.452;11.636;2024-02-26T11:22:01;19.42;;;8.15;;
79284;SDS011;68734;50.452;11.636;2024-02-26T11:24:27;13.55;;;7.43;;
79284;SDS011;68734;50.452;11.636;2024-02-26T11:26:54;16.23;;;7.38;;
79284;SDS011;68734;50.452;11.636;2024-02-26T11:29:28;10.88;;;6.85;;
79284;SDS011;68734;50.452;11.636;2024-02-26T11:31:59;19.02;;;7.88;;
79284;SDS011;68734;50.452;11.636;2024-02-26T11:34:25;11.20;;;7.05;;
79284;SDS011;68734;50.452;11.636;2024-02-26T11:36:51;11.20;;;7.20;;
79284;SDS011;68734;50.452;11.636;2024-02-26T11:39:20;11.95;;;6.68;;
79284;SDS011;68734;50.452;11.636;2024-02-26T11:41:46;13.93;;;6.70;;
79284;SDS011;68734;50.452;11.636;2024-02-26T11:44:11;12.43;;;6.22;;
79284;SDS011;68734;50.452;11.636;2024-02-26T11:46:40;10.75;;;5.57;;
79284;SDS011;68734;50.452;11.636;2024-02-26T11:51:52;10.48;;;5.38;;
79284;SDS011;68734;50.452;11.636;2024-02-26T11:54:37;10.60;;;5.03;;
79284;SDS011;68734;50.452;11.636;2024-02-26T11:57:03;8.98;;;5.05;;
79284;SDS011;68734;50.452;11.636;2024-02-26T11:59:47;7.93;;;4.63;;
79284;SDS011;68734;50.452;11.636;2024-02-26T12:02:58;9.25;;;4.57;;
79284;SDS011;68734;50.452;11.636;2024-02-26T12:05:18;9.48;;;4.22;;
79284;SDS011;68734;50.452;11.636;2024-02-26T12:07:53;7.43;;;4.45;;
79284;SDS011;68734;50.452;11.636;2024-02-26T12:12:45;7.65;;;4.28;;
79284;SDS011;68734;50.452;11.636;2024-02-26T12:15:10;7.60;;;4.38;;
79284;SDS011;68734;50.452;11.636;2024-02-26T12:17:38;10.05;;;4.60;;
79284;SDS011;68734;50.452;11.636;2024-02-26T12:20:11;11.63;;;4.10;;
79284;SDS011;68734;50.452;11.636;2024-02-26T12:22:41;10.35;;;4.50;;
79284;SDS011;68734;50.452;11.636;2024-02-26T12:25:10;11.90;;;5.20;;
79284;SDS011;68734;50.452;11.636;2024-02-26T12:27:36;7.13;;;3.75;;
79284;SDS011;68734;50.452;11.636;2024-02-26T12:30:04;7.70;;;4.10;;
79284;SDS011;68734;50.452;11.636;2024-02-26T12:32:31;8.35;;;4.38;;
79284;SDS011;68734;50.452;11.636;2024-02-26T12:34:57;7.78;;;4.60;;
79284;SDS011;68734;50.452;11.636;2024-02-26T12:37:25;5.10;;;3.17;;
79284;SDS011;68734;50.452;11.636;2024-02-26T12:39:51;6.72;;;3.13;;
79284;SDS011;68734;50.452;11.636;2024-02-26T12:42:16;6.65;;;3.25;;
79284;SDS011;68734;50.452;11.636;2024-02-26T12:44:43;7.03;;;3.70;;
79284;SDS011;68734;50.452;11.636;2024-02-26T12:47:10;7.68;;;3.20;;
79284;SDS011;68734;50.452;11.636;2024-02-26T12:49:42;6.10;;;3.40;;
79284;SDS011;68734;50.452;11.636;2024-02-26T12:52:08;7.60;;;3.45;;
79284;SDS011;68734;50.452;11.636;2024-02-26T12:54:38;4.88;;;3.17;;
79284;SDS011;68734;50.452;11.636;2024-02-26T12:57:07;4.63;;;2.38;;
79284;SDS011;68734;50.452;11.636;2024-02-26T12:59:36;9.75;;;3.72;;
79284;SDS011;68734;50.452;11.636;2024-02-26T13:02:02;9.63;;;2.90;;
79284;SDS011;68734;50.452;11.636;2024-02-26T13:04:31;5.45;;;3.17;;
79284;SDS011;68734;50.452;11.636;2024-02-26T13:06:56;5.65;;;3.03;;
79284;SDS011;68734;50.452;11.636;2024-02-26T13:09:28;5.22;;;2.58;;
79284;SDS011;68734;50.452;11.636;2024-02-26T13:11:57;4.85;;;2.78;;
79284;SDS011;68734;50.452;11.636;2024-02-26T13:14:22;4.18;;;2.58;;
79284;SDS011;68734;50.452;11.636;2024-02-26T13:16:57;6.07;;;2.83;;
79284;SDS011;68734;50.452;11.636;2024-02-26T13:19:23;5.38;;;2.88;;
79284;SDS011;68734;50.452;11.636;2024-02-26T13:21:53;5.03;;;2.55;;
79284;SDS011;68734;50.452;11.636;2024-02-26T13:24:19;6.60;;;3.15;;
79284;SDS011;68734;50.452;11.636;2024-02-26T13:26:45;5.75;;;2.63;;
79284;SDS011;68734;50.452;11.636;2024-02-26T13:29:17;5.93;;;3.05;;
79284;SDS011;68734;50.452;11.636;2024-02-26T13:31:43;6.90;;;3.28;;
79284;SDS011;68734;50.452;11.636;2024-02-26T13:36:52;5.97;;;3.80;;
79284;SDS011;68734;50.452;11.636;2024-02-26T13:39:25;6.75;;;3.83;;
79284;SDS011;68734;50.452;11.636;2024-02-26T13:41:52;7.88;;;4.00;;
79284;SDS011;68734;50.452;11.636;2024-02-26T13:44:19;4.47;;;2.83;;
79284;SDS011;68734;50.452;11.636;2024-02-26T13:46:44;7.30;;;3.97;;
79284;SDS011;68734;50.452;11.636;2024-02-26T13:49:10;7.55;;;3.65;;
79284;SDS011;68734;50.452;11.636;2024-02-26T13:51:36;10.48;;;4.43;;
79284;SDS011;68734;50.452;11.636;2024-02-26T13:54:03;7.95;;;3.90;;
79284;SDS011;68734;50.452;11.636;2024-02-26T13:56:30;6.75;;;3.97;;
79284;SDS011;68734;50.452;11.636;2024-02-26T13:58:58;7.35;;;4.32;;
79284;SDS011;68734;50.452;11.636;2024-02-26T14:01:26;8.77;;;4.40;;
79284;SDS011;68734;50.452;11.636;2024-02-26T14:03:53;9.07;;;4.75;;
79284;SDS011;68734;50.452;11.636;2024-02-26T14:06:21;11.77;;;4.00;;
79284;SDS011;68734;50.452;11.636;2024-02-26T14:08:47;7.03;;;4.25;;
79284;SDS011;68734;50.452;11.636;2024-02-26T14:11:12;9.30;;;4.80;;
79284;SDS011;68734;50.452;11.636;2024-02-26T14:13:39;8.55;;;4.22;;
79284;SDS011;68734;50.452;11.636;2024-02-26T14:16:04;10.45;;;5.68;;
79284;SDS011;68734;50.452;11.636;2024-02-26T14:18:30;14.38;;;6.05;;
79284;SDS011;68734;50.452;11.636;2024-02-26T14:21:00;9.27;;;4.00;;
79284;SDS011;68734;50.452;11.636;2024-02-26T14:23:28;7.32;;;4.10;;
79284;SDS011;68734;50.452;11.636;2024-02-26T14:25:53;7.15;;;3.97;;